Terminal Aerodrome Forecast
Issued by NWS

Home | Current Version | Previous Version | Graphics & Text | Print | Product List | Glossary On
Versions: 1 2 3 4 5 6 7 8 9 10 11 12 13 14
000
FTUS43 KLSX 212327
TAFSUS
TAF
KSUS 212327Z 2200/2224 04007KT P6SM -RA OVC060
      TEMPO 2200/2201 5SM -RA
     FM220200 06007KT P6SM VCSH OVC050
     FM220500 07012G18KT P6SM -RA OVC045
     FM221000 06012G18KT 5SM -RA BR OVC030
     FM221400 03013G21KT 4SM -RA BR OVC015
     FM222200 03011G19KT P6SM OVC040=

USA.gov is the U.S. government's official web portal to all federal, state and local government web resources and services.